createdAt,value
2023-02-14T00:01:28.494Z,52.57
2023-02-14T00:04:30.533Z,52.84
2023-02-14T00:07:33.026Z,52.70
2023-02-14T00:10:35.553Z,53.24
2023-02-14T00:13:37.799Z,52.84
2023-02-14T00:16:39.834Z,52.14
2023-02-14T00:19:43.408Z,52.68
2023-02-14T00:22:45.427Z,52.71
2023-02-14T00:25:47.387Z,52.60
2023-02-14T00:28:49.416Z,52.40
2023-02-14T00:31:51.999Z,52.90
2023-02-14T00:34:54.057Z,52.41
2023-02-14T00:37:56.136Z,52.02
2023-02-14T00:40:58.525Z,51.99
2023-02-14T00:44:01.049Z,51.96
2023-02-14T00:47:03.152Z,53.04
2023-02-14T00:50:05.539Z,52.56
2023-02-14T00:53:07.656Z,52.94
2023-02-14T00:56:10.504Z,51.65
2023-02-14T00:59:12.998Z,52.39
2023-02-14T01:02:17.075Z,52.33
2023-02-14T01:05:19.560Z,51.34
2023-02-14T01:08:21.689Z,53.03
2023-02-14T01:11:25.403Z,51.94
2023-02-14T01:14:28.335Z,51.53
2023-02-14T01:17:30.499Z,51.82
2023-02-14T01:20:33.258Z,52.20
2023-02-14T01:23:35.226Z,51.38
2023-02-14T01:26:37.371Z,51.73
2023-02-14T01:29:39.385Z,51.96
2023-02-14T01:32:42.529Z,52.54
2023-02-14T01:35:44.521Z,52.77
2023-02-14T01:38:47.313Z,52.76
2023-02-14T01:41:50.215Z,53.02
2023-02-14T01:45:20.000Z,52.09
2023-02-14T01:48:23.363Z,52.72
2023-02-14T01:51:25.484Z,52.69
2023-02-14T01:54:31.739Z,52.55
2023-02-14T01:57:43.829Z,52.82
2023-02-14T02:00:59.446Z,53.24
2023-02-14T02:04:12.900Z,52.14
2023-02-14T02:07:19.565Z,53.03
2023-02-14T02:10:21.998Z,52.78
2023-02-14T02:13:25.460Z,53.12
2023-02-14T02:16:55.764Z,53.22
2023-02-14T02:20:31.656Z,53.45
2023-02-14T02:23:45.373Z,53.90
2023-02-14T02:26:47.436Z,53.26
2023-02-14T02:30:07.904Z,53.34
2023-02-14T02:33:12.768Z,53.22
2023-02-14T02:36:30.081Z,53.63
2023-02-14T02:39:51.151Z,53.60
2023-02-14T02:43:15.490Z,53.65
2023-02-14T02:46:48.346Z,54.20
2023-02-14T02:50:18.011Z,53.69
2023-02-14T02:53:35.102Z,53.97
2023-02-14T02:56:49.932Z,54.58
2023-02-14T02:59:57.529Z,54.45
2023-02-14T03:03:18.128Z,54.49
2023-02-14T03:06:20.186Z,54.42
2023-02-14T03:09:28.011Z,54.08
2023-02-14T03:12:39.086Z,54.09
2023-02-14T03:15:59.048Z,53.55
2023-02-14T03:19:10.830Z,53.66
2023-02-14T03:22:30.224Z,53.99
2023-02-14T03:25:43.019Z,53.74
2023-02-14T03:28:59.014Z,53.69
2023-02-14T03:32:23.016Z,53.93
2023-02-14T03:35:46.705Z,53.64
2023-02-14T03:39:08.178Z,54.06
2023-02-14T03:42:25.526Z,54.04
2023-02-14T03:45:40.832Z,53.72
2023-02-14T03:48:44.515Z,53.60
2023-02-14T03:51:50.808Z,53.86
2023-02-14T03:54:56.674Z,53.57
2023-02-14T03:58:12.692Z,53.38
2023-02-14T04:01:19.224Z,53.53
2023-02-14T04:04:25.458Z,53.28
2023-02-14T04:07:27.570Z,53.27
2023-02-14T04:10:29.659Z,53.36
2023-02-14T04:13:32.186Z,53.44
2023-02-14T04:16:54.180Z,53.95
2023-02-14T04:19:56.949Z,53.77
2023-02-14T04:22:59.188Z,53.39
2023-02-14T04:26:03.799Z,53.27
2023-02-14T04:29:05.803Z,53.42
2023-02-14T04:32:11.038Z,53.58
2023-02-14T04:35:13.205Z,53.61
2023-02-14T04:38:15.455Z,53.17
2023-02-14T04:41:17.551Z,52.46
2023-02-14T04:44:20.521Z,52.49
2023-02-14T04:47:22.544Z,52.43
2023-02-14T04:50:26.066Z,52.55
2023-02-14T04:53:27.993Z,52.74
2023-02-14T04:56:30.129Z,53.15
2023-02-14T04:59:32.099Z,52.57
2023-02-14T05:02:34.128Z,53.50
2023-02-14T05:05:36.175Z,53.18
2023-02-14T05:08:38.243Z,53.03
2023-02-14T05:11:40.249Z,52.99
2023-02-14T05:14:42.296Z,53.18
2023-02-14T05:17:44.425Z,53.00
2023-02-14T05:20:50.062Z,53.15
2023-02-14T05:23:52.025Z,53.69
2023-02-14T05:26:54.071Z,52.52
2023-02-14T05:29:56.134Z,55.12
2023-02-14T05:32:58.343Z,59.62
2023-02-14T05:36:03.602Z,61.08
2023-02-14T05:39:05.727Z,63.59
2023-02-14T05:45:10.905Z,64.74
2023-02-14T05:48:13.487Z,64.89
2023-02-14T05:51:15.580Z,64.17
2023-02-14T05:54:17.614Z,63.01
2023-02-14T05:57:19.724Z,64.54
2023-02-14T06:00:24.043Z,63.99
2023-02-14T06:03:26.389Z,68.20
2023-02-14T06:06:28.448Z,63.26
2023-02-14T06:09:30.574Z,63.29
2023-02-14T06:12:32.998Z,62.96
2023-02-14T06:15:36.335Z,57.92
2023-02-14T06:18:39.224Z,54.91
2023-02-14T06:21:41.207Z,57.11
2023-02-14T06:24:43.268Z,53.37
2023-02-14T06:27:45.942Z,52.27
2023-02-14T06:30:48.845Z,54.33
2023-02-14T06:33:52.510Z,50.43
2023-02-14T06:36:54.621Z,49.82
2023-02-14T06:39:56.694Z,52.02
2023-02-14T06:42:58.715Z,49.30
2023-02-14T06:46:01.227Z,46.84
2023-02-14T06:49:03.274Z,47.42
2023-02-14T06:52:05.665Z,46.20
2023-02-14T06:55:08.047Z,46.30
2023-02-14T06:58:10.046Z,47.75
2023-02-14T07:01:12.085Z,45.58
2023-02-14T07:04:15.217Z,45.34
2023-02-14T07:07:17.212Z,44.72
2023-02-14T07:10:19.987Z,42.90
2023-02-14T07:13:22.214Z,42.96
2023-02-14T07:16:24.500Z,43.83
2023-02-14T07:19:26.557Z,42.94
2023-02-14T07:22:30.311Z,41.74
2023-02-14T07:25:32.623Z,42.27
2023-02-14T07:28:34.686Z,43.10
2023-02-14T07:31:36.932Z,41.57
2023-02-14T07:34:39.174Z,41.30
2023-02-14T07:37:41.296Z,42.94
2023-02-14T07:40:43.369Z,41.57
2023-02-14T07:43:45.297Z,40.69
2023-02-14T07:46:47.347Z,43.29
2023-02-14T07:49:49.366Z,42.44
2023-02-14T07:52:51.422Z,42.33
2023-02-14T07:55:53.797Z,43.81
2023-02-14T07:58:55.828Z,42.73
2023-02-14T08:01:58.245Z,41.67
2023-02-14T08:05:00.403Z,42.06
2023-02-14T08:08:02.606Z,41.03
2023-02-14T08:11:04.666Z,42.23
2023-02-14T08:14:06.773Z,42.12
2023-02-14T08:17:10.323Z,41.15
2023-02-14T08:20:13.458Z,40.63
2023-02-14T08:23:17.915Z,41.74
2023-02-14T08:26:20.294Z,40.77
2023-02-14T08:29:22.327Z,40.71
2023-02-14T08:32:24.444Z,41.84
2023-02-14T08:35:26.563Z,40.71
2023-02-14T08:38:29.215Z,40.32
2023-02-14T08:41:31.757Z,40.89
2023-02-14T08:44:33.736Z,40.27
2023-02-14T08:47:36.837Z,40.61
2023-02-14T08:50:39.854Z,41.19
2023-02-14T08:53:42.889Z,40.14
2023-02-14T08:56:45.063Z,39.87
2023-02-14T08:59:47.402Z,40.79
2023-02-14T09:02:53.196Z,40.13
2023-02-14T09:06:02.816Z,39.16
2023-02-14T09:09:06.470Z,40.31
2023-02-14T09:12:10.319Z,39.70
2023-02-14T09:15:12.787Z,39.03
2023-02-14T09:18:16.310Z,40.14
2023-02-14T09:21:21.506Z,39.27
2023-02-14T09:24:23.556Z,40.78
2023-02-14T09:27:25.642Z,40.17
2023-02-14T09:30:27.871Z,41.39
2023-02-14T09:33:30.047Z,43.82
2023-02-14T09:36:51.139Z,45.07
2023-02-14T09:39:53.274Z,44.23
2023-02-14T09:43:01.831Z,45.59
2023-02-14T09:46:07.641Z,49.28
2023-02-14T09:49:15.512Z,49.59
2023-02-14T09:52:20.023Z,51.13
2023-02-14T09:55:22.597Z,52.11
2023-02-14T09:58:40.025Z,49.06
2023-02-14T10:02:32.876Z,49.92
2023-02-14T10:05:43.990Z,51.76
2023-02-14T10:09:13.619Z,50.40
2023-02-14T10:12:24.694Z,50.01
2023-02-14T10:15:32.177Z,50.90
2023-02-14T10:18:56.159Z,49.53
2023-02-14T10:22:03.303Z,49.43
2023-02-14T10:25:29.733Z,49.10
2023-02-14T10:28:43.090Z,49.80
2023-02-14T10:31:56.015Z,47.98
2023-02-14T10:35:01.129Z,47.72
2023-02-14T10:38:19.960Z,48.06
2023-02-14T10:42:06.821Z,46.76
2023-02-14T10:45:29.288Z,46.82
2023-02-14T10:48:59.809Z,48.38
2023-02-14T10:52:15.068Z,48.54
2023-02-14T10:55:32.975Z,45.78
2023-02-14T10:58:38.358Z,47.44
2023-02-14T11:01:40.887Z,48.93
2023-02-14T11:04:44.457Z,46.84
2023-02-14T11:07:46.441Z,46.35
2023-02-14T11:10:48.847Z,47.30
2023-02-14T11:13:50.973Z,49.82
2023-02-14T11:16:54.615Z,49.98
2023-02-14T11:20:02.113Z,49.45
2023-02-14T11:23:19.172Z,50.53
2023-02-14T11:26:25.768Z,52.74
2023-02-14T11:29:31.021Z,52.69
2023-02-14T11:32:37.664Z,51.65
2023-02-14T11:35:39.814Z,52.11
2023-02-14T11:38:44.438Z,49.89
2023-02-14T11:41:56.392Z,50.30
2023-02-14T11:44:59.737Z,49.85
2023-02-14T11:48:36.651Z,49.67
2023-02-14T11:51:45.589Z,49.77
2023-02-14T11:54:49.661Z,49.61
2023-02-14T11:57:52.070Z,51.02
2023-02-14T12:00:54.496Z,47.73
2023-02-14T12:04:01.675Z,49.15
2023-02-14T12:07:16.688Z,48.54
2023-02-14T12:10:25.053Z,50.35
2023-02-14T12:13:27.094Z,49.92
2023-02-14T12:16:38.857Z,50.18
2023-02-14T12:19:54.755Z,51.26
2023-02-14T12:23:03.890Z,52.23
2023-02-14T12:26:43.324Z,51.48
2023-02-14T12:29:48.761Z,51.79
2023-02-14T12:32:56.521Z,51.79
2023-02-14T12:36:09.215Z,52.66
2023-02-14T12:39:20.994Z,52.03
2023-02-14T12:42:35.201Z,51.54
2023-02-14T12:45:55.767Z,50.52
2023-02-14T12:49:00.588Z,50.88
2023-02-14T12:52:20.647Z,50.74
2023-02-14T12:55:36.908Z,50.97
2023-02-14T12:58:59.240Z,51.23
2023-02-14T13:02:16.511Z,49.61
2023-02-14T13:05:53.598Z,50.85
2023-02-14T13:09:14.474Z,50.73
2023-02-14T13:12:35.099Z,50.33
2023-02-14T13:15:55.053Z,51.48
2023-02-14T13:19:05.725Z,53.16
2023-02-14T13:22:13.674Z,53.02
2023-02-14T13:25:33.646Z,53.46
2023-02-14T13:28:39.384Z,55.53
2023-02-14T13:31:42.297Z,55.20
2023-02-14T13:34:47.760Z,57.89
2023-02-14T13:37:56.226Z,61.19
2023-02-14T13:41:01.117Z,61.78
2023-02-14T13:44:05.558Z,61.16
2023-02-14T13:47:16.186Z,63.08
2023-02-14T13:50:21.747Z,66.84
2023-02-14T13:53:38.056Z,65.63
2023-02-14T13:56:40.472Z,66.79
2023-02-14T13:59:43.219Z,67.38
2023-02-14T14:03:05.543Z,70.63
2023-02-14T14:06:12.977Z,68.93
2023-02-14T14:09:43.349Z,68.24
2023-02-14T14:12:46.105Z,71.21
2023-02-14T14:16:21.778Z,67.57
2023-02-14T14:19:26.909Z,66.73
2023-02-14T14:22:32.016Z,66.00
2023-02-14T14:25:41.494Z,65.79
2023-02-14T14:28:47.864Z,62.64
2023-02-14T14:31:55.783Z,63.82
2023-02-14T14:35:08.478Z,64.69
2023-02-14T14:38:14.465Z,62.61
2023-02-14T14:41:17.186Z,61.34
2023-02-14T14:44:19.364Z,61.11
2023-02-14T14:47:26.978Z,61.80
2023-02-14T14:50:33.070Z,58.50
2023-02-14T14:53:44.657Z,58.13
2023-02-14T14:57:01.675Z,58.14
2023-02-14T15:00:28.541Z,56.08
2023-02-14T15:03:31.265Z,56.03
2023-02-14T15:06:33.261Z,57.30
2023-02-14T15:09:36.805Z,56.75
2023-02-14T15:12:57.640Z,58.95
2023-02-14T15:16:01.847Z,58.83
2023-02-14T15:19:19.056Z,62.81
2023-02-14T15:22:23.988Z,63.52
2023-02-14T15:25:27.761Z,63.70
2023-02-14T15:28:32.247Z,65.93
2023-02-14T15:31:40.826Z,65.02
2023-02-14T15:34:43.013Z,64.46
2023-02-14T15:37:46.940Z,64.05
2023-02-14T15:40:49.371Z,66.27
2023-02-14T15:43:54.031Z,63.91
2023-02-14T15:47:05.759Z,64.41
2023-02-14T15:50:31.422Z,65.00
2023-02-14T15:53:58.484Z,66.01
2023-02-14T15:57:01.457Z,67.15
2023-02-14T16:00:17.081Z,66.20
2023-02-14T16:03:22.720Z,65.39
2023-02-14T16:06:45.051Z,65.25
2023-02-14T16:09:48.171Z,64.12
2023-02-14T16:13:20.542Z,62.86
2023-02-14T16:16:22.708Z,60.68
2023-02-14T16:19:37.268Z,61.06
2023-02-14T16:22:39.290Z,60.30
2023-02-14T16:25:42.001Z,61.19
2023-02-14T16:28:44.032Z,59.17
2023-02-14T16:32:14.117Z,58.89
2023-02-14T16:35:21.259Z,58.41
2023-02-14T16:38:23.693Z,58.89
2023-02-14T16:41:27.956Z,56.99
2023-02-14T16:44:29.988Z,58.59
2023-02-14T16:47:32.059Z,57.81
2023-02-14T16:50:36.555Z,58.87
2023-02-14T16:53:41.151Z,57.91
2023-02-14T16:56:53.633Z,56.67
2023-02-14T16:59:56.579Z,52.66
2023-02-14T17:03:08.671Z,50.28
2023-02-14T17:06:15.859Z,50.23
2023-02-14T17:09:24.384Z,51.89
2023-02-14T17:12:35.338Z,53.45
2023-02-14T17:15:39.032Z,53.96
2023-02-14T17:18:43.548Z,52.30
2023-02-14T17:21:45.639Z,54.13
2023-02-14T17:24:47.840Z,55.62
2023-02-14T17:27:49.860Z,57.17
2023-02-14T17:30:51.812Z,49.74
2023-02-14T17:33:53.958Z,44.44
2023-02-14T17:36:55.964Z,45.80
2023-02-14T17:40:01.280Z,49.61
2023-02-14T17:43:03.457Z,65.12
2023-02-14T17:46:05.834Z,76.74
2023-02-14T17:49:09.729Z,82.92
2023-02-14T17:52:11.764Z,90.91
2023-02-14T17:55:15.917Z,97.62
2023-02-14T17:58:17.935Z,100.00
2023-02-14T18:01:22.639Z,100.00
2023-02-14T18:04:25.682Z,100.00
2023-02-14T18:07:27.709Z,100.00
2023-02-14T18:10:29.800Z,100.00
2023-02-14T18:13:32.231Z,100.00
2023-02-14T18:16:37.053Z,100.00
2023-02-14T18:19:39.098Z,100.00
2023-02-14T18:22:41.112Z,100.00
2023-02-14T18:25:49.983Z,100.00
2023-02-14T18:28:52.121Z,100.00
2023-02-14T18:31:54.222Z,100.00
2023-02-14T18:34:56.333Z,100.00
2023-02-14T18:37:58.544Z,100.00
2023-02-14T18:41:05.364Z,100.00
2023-02-14T18:44:10.623Z,100.00
2023-02-14T18:47:12.526Z,100.00
2023-02-14T18:50:14.577Z,100.00
2023-02-14T18:53:17.890Z,100.00
2023-02-14T18:56:24.298Z,100.00
2023-02-14T18:59:26.300Z,100.00
2023-02-14T19:02:28.428Z,100.00
2023-02-14T19:05:30.528Z,100.00
2023-02-14T19:08:38.457Z,100.00
2023-02-14T19:11:40.909Z,100.00
2023-02-14T19:14:43.122Z,100.00
2023-02-14T19:17:45.630Z,100.00
2023-02-14T19:20:48.402Z,100.00
2023-02-14T19:23:53.035Z,100.00
2023-02-14T19:26:56.953Z,100.00
2023-02-14T19:29:59.096Z,100.00
2023-02-14T19:33:01.291Z,100.00
2023-02-14T19:36:05.723Z,100.00
2023-02-14T19:39:10.202Z,100.00
2023-02-14T19:42:14.084Z,100.00
2023-02-14T19:45:19.053Z,100.00
2023-02-14T19:48:21.028Z,100.00
2023-02-14T19:51:26.617Z,99.49
2023-02-14T19:54:30.156Z,93.00
2023-02-14T19:57:32.162Z,92.09
2023-02-14T20:00:37.132Z,89.25
2023-02-14T20:03:39.282Z,87.90
2023-02-14T20:06:43.952Z,84.88
2023-02-14T20:09:46.114Z,85.69
2023-02-14T20:12:48.397Z,84.49
2023-02-14T20:15:51.708Z,85.47
2023-02-14T20:18:54.450Z,80.97
2023-02-14T20:21:56.625Z,82.48
2023-02-14T20:25:00.743Z,82.71
2023-02-14T20:28:02.777Z,81.51
2023-02-14T20:31:13.260Z,82.39
2023-02-14T20:34:17.200Z,82.40
2023-02-14T20:37:22.667Z,81.88
2023-02-14T20:40:28.091Z,79.25
2023-02-14T20:43:31.487Z,80.37
2023-02-14T20:46:34.799Z,80.53
2023-02-14T20:49:39.288Z,79.22
2023-02-14T20:52:41.385Z,79.87
2023-02-14T20:55:47.137Z,79.42
2023-02-14T20:58:49.963Z,80.03
2023-02-14T21:01:52.074Z,78.65
2023-02-14T21:04:54.174Z,76.26
2023-02-14T21:07:56.487Z,77.03
2023-02-14T21:11:00.515Z,73.76
2023-02-14T21:14:03.136Z,74.79
2023-02-14T21:17:05.144Z,74.12
2023-02-14T21:20:07.883Z,73.33
2023-02-14T21:23:10.515Z,73.15
2023-02-14T21:26:12.568Z,73.90
2023-02-14T21:29:14.760Z,71.24
2023-02-14T21:32:16.971Z,72.70
2023-02-14T21:35:19.175Z,70.55
2023-02-14T21:38:21.699Z,72.21
2023-02-14T21:41:26.736Z,71.63
2023-02-14T21:44:47.580Z,69.84
2023-02-14T21:48:11.108Z,70.05
2023-02-14T21:51:13.940Z,70.44
2023-02-14T21:54:16.640Z,68.15
2023-02-14T21:57:21.040Z,68.86
2023-02-14T22:00:23.132Z,69.70
2023-02-14T22:03:25.315Z,67.87
2023-02-14T22:06:31.377Z,67.96
2023-02-14T22:09:34.233Z,67.76
2023-02-14T22:12:36.404Z,67.40
2023-02-14T22:15:41.354Z,68.21
2023-02-14T22:18:43.652Z,68.20
2023-02-14T22:25:12.118Z,66.44
2023-02-14T22:28:14.174Z,67.97
2023-02-14T22:31:18.659Z,66.65
2023-02-14T22:34:20.837Z,67.13
2023-02-14T22:37:22.964Z,66.25
2023-02-14T22:40:25.129Z,67.58
2023-02-14T22:43:27.451Z,67.13
2023-02-14T22:46:29.491Z,67.12
2023-02-14T22:49:31.546Z,67.85
2023-02-14T22:52:34.994Z,67.53
2023-02-14T22:55:37.030Z,66.91
2023-02-14T22:58:39.480Z,67.41
2023-02-14T23:01:42.829Z,67.84
2023-02-14T23:04:44.904Z,67.47
2023-02-14T23:07:47.123Z,67.68
2023-02-14T23:10:49.437Z,67.77
2023-02-14T23:14:10.077Z,68.28
2023-02-14T23:17:18.812Z,68.86
2023-02-14T23:20:39.850Z,68.73
2023-02-14T23:23:41.935Z,68.16
2023-02-14T23:26:44.244Z,68.26
2023-02-14T23:29:46.458Z,68.38
2023-02-14T23:32:48.462Z,68.44
2023-02-14T23:35:50.440Z,68.61
2023-02-14T23:38:52.550Z,68.15
2023-02-14T23:41:55.384Z,68.06
2023-02-14T23:45:17.421Z,68.25
2023-02-14T23:48:19.475Z,68.40
2023-02-14T23:51:21.471Z,67.98
2023-02-14T23:54:24.207Z,67.13
2023-02-14T23:57:26.290Z,67.00
